Time;durP1;ratioP1;P1;durP2;ratioP2;P2;SDS_P1;SDS_P2;PMS_P1;PMS_P2;Temp;Humidity;BMP_temperature;BMP_pressure;BME280_temperature;BME280_humidity;BME280_pressure;Samples;Min_cycle;Max_cycle;Signal;HPM_P1;HPM_P2
2022/04/25 00:00:21;;;;;;;1.93;1.50;;;;;;;;;;5018514;28;20637;-43
2022/04/25 00:02:50;;;;;;;1.63;1.53;;;;;;;;;;5032678;28;20206;-39
2022/04/25 00:05:17;;;;;;;1.47;1.37;;;;;;;;;;5020362;28;20218;-40
2022/04/25 00:07:44;;;;;;;1.43;1.37;;;;;;;;;;5020046;28;20211;-38
2022/04/25 00:10:11;;;;;;;2.80;1.80;;;;;;;;;;5020707;28;20194;-39
2022/04/25 00:12:38;;;;;;;1.90;1.40;;;;;;;;;;5022476;28;20203;-35
2022/04/25 00:15:07;;;;;;;2.17;1.90;;;;;;;;;;5024579;28;20209;-37
2022/04/25 00:17:34;;;;;;;1.87;1.77;;;;;;;;;;5032354;28;20256;-37
2022/04/25 00:20:03;;;;;;;3.03;1.90;;;;;;;;;;5026356;28;20199;-36
2022/04/25 00:22:30;;;;;;;2.30;1.93;;;;;;;;;;5027192;28;20325;-35
2022/04/25 00:24:58;;;;;;;2.13;1.93;;;;;;;;;;5014745;28;20207;-41
2022/04/25 00:27:28;;;;;;;2.30;2.10;;;;;;;;;;5019314;28;20211;-39
2022/04/25 00:29:55;;;;;;;3.73;2.83;;;;;;;;;;5023493;28;20202;-36
2022/04/25 00:32:23;;;;;;;2.60;2.40;;;;;;;;;;5032142;28;20211;-39
2022/04/25 00:34:50;;;;;;;5.37;3.53;;;;;;;;;;5024216;28;20210;-40
2022/04/25 00:37:18;;;;;;;3.87;3.43;;;;;;;;;;5023138;28;20198;-41
2022/04/25 00:39:45;;;;;;;3.00;2.70;;;;;;;;;;5028191;28;20199;-37
2022/04/25 00:42:13;;;;;;;4.33;2.90;;;;;;;;;;5014220;28;20234;-39
2022/04/25 00:44:41;;;;;;;3.07;2.80;;;;;;;;;;5020486;28;20286;-36
2022/04/25 00:47:10;;;;;;;2.97;2.53;;;;;;;;;;5031514;28;20265;-41
2022/04/25 00:49:37;;;;;;;2.50;2.23;;;;;;;;;;5028129;28;20210;-33
2022/04/25 00:52:04;;;;;;;3.60;2.97;;;;;;;;;;5010611;28;20716;-37
2022/04/25 00:54:33;;;;;;;3.93;2.67;;;;;;;;;;5018402;28;20203;-39
2022/04/25 00:57:01;;;;;;;4.07;2.60;;;;;;;;;;5010880;28;20227;-40
2022/04/25 00:59:28;;;;;;;2.80;2.53;;;;;;;;;;5014984;28;20205;-36
2022/04/25 01:01:55;;;;;;;3.67;2.60;;;;;;;;;;5016420;28;20226;-36
2022/04/25 01:04:22;;;;;;;2.60;2.17;;;;;;;;;;5030179;28;20211;-36
2022/04/25 01:06:49;;;;;;;2.50;2.20;;;;;;;;;;5015412;28;20227;-40
2022/04/25 01:09:17;;;;;;;3.00;1.90;;;;;;;;;;5022786;28;20286;-42
2022/04/25 01:11:45;;;;;;;2.50;2.23;;;;;;;;;;5020244;28;20214;-33
2022/04/25 01:14:13;;;;;;;2.70;2.20;;;;;;;;;;5025155;28;20195;-34
2022/04/25 01:16:40;;;;;;;3.50;2.30;;;;;;;;;;5021148;28;20223;-34
2022/04/25 01:19:07;;;;;;;3.17;2.87;;;;;;;;;;5025675;28;20211;-38
2022/04/25 01:21:37;;;;;;;3.17;2.73;;;;;;;;;;5012554;28;20227;-39
2022/04/25 01:29:38;;;;;;;4.47;3.60;;;;;;;;;;5030604;28;20245;-38
2022/04/25 01:32:05;;;;;;;5.97;3.90;;;;;;;;;;5031181;28;20207;-38
2022/04/25 01:34:36;;;;;;;5.13;4.17;;;;;;;;;;5026185;28;20207;-34
2022/04/25 01:37:05;;;;;;;5.90;4.73;;;;;;;;;;5024592;28;20234;-39
2022/04/25 01:39:33;;;;;;;7.47;5.87;;;;;;;;;;5031712;28;20285;-38
2022/04/25 01:42:00;;;;;;;9.83;6.93;;;;;;;;;;5014023;28;20226;-41
2022/04/25 01:44:28;;;;;;;12.20;7.70;;;;;;;;;;5024483;28;20249;-36
2022/04/25 01:46:55;;;;;;;13.77;10.13;;;;;;;;;;5011460;28;20310;-40
2022/04/25 01:49:22;;;;;;;11.17;9.23;;;;;;;;;;5009103;28;20214;-40
2022/04/25 01:51:49;;;;;;;12.30;9.43;;;;;;;;;;5019558;28;20207;-41
2022/04/25 01:54:18;;;;;;;13.77;10.50;;;;;;;;;;5015906;28;20207;-41
2022/04/25 01:56:46;;;;;;;14.50;11.33;;;;;;;;;;5011265;28;20238;-38
2022/04/25 01:59:14;;;;;;;16.97;12.47;;;;;;;;;;5023977;28;20217;-38
2022/04/25 02:01:41;;;;;;;16.07;12.33;;;;;;;;;;5012686;28;20270;-40
2022/04/25 02:04:08;;;;;;;17.27;13.10;;;;;;;;;;5011565;28;20239;-37
2022/04/25 02:06:35;;;;;;;15.67;12.03;;;;;;;;;;5011968;28;20235;-36
2022/04/25 02:09:02;;;;;;;16.87;12.70;;;;;;;;;;5020624;28;20212;-42
2022/04/25 02:11:31;;;;;;;15.77;11.17;;;;;;;;;;5018715;28;20218;-34
2022/04/25 02:13:59;;;;;;;19.17;13.60;;;;;;;;;;5019808;28;20231;-36
2022/04/25 02:16:27;;;;;;;17.57;12.23;;;;;;;;;;5030039;28;20232;-40
2022/04/25 02:18:54;;;;;;;17.80;13.57;;;;;;;;;;5028722;28;20198;-34
2022/04/25 02:21:22;;;;;;;18.97;13.83;;;;;;;;;;5024032;28;20226;-36
2022/04/25 02:23:49;;;;;;;17.73;12.60;;;;;;;;;;5033069;28;20230;-34
2022/04/25 02:26:16;;;;;;;19.30;14.73;;;;;;;;;;5028590;28;20222;-38
2022/04/25 02:28:43;;;;;;;18.47;13.73;;;;;;;;;;5018840;28;20215;-40
2022/04/25 02:31:12;;;;;;;18.97;14.47;;;;;;;;;;5020559;28;20203;-38
2022/04/25 02:33:40;;;;;;;19.73;15.10;;;;;;;;;;5012221;28;20211;-40
2022/04/25 02:36:08;;;;;;;18.00;13.80;;;;;;;;;;5023438;28;20227;-42
2022/04/25 02:38:36;;;;;;;17.90;13.87;;;;;;;;;;5032812;28;20242;-40
2022/04/25 02:41:06;;;;;;;18.83;14.77;;;;;;;;;;5030908;28;20210;-32
2022/04/25 02:43:34;;;;;;;20.90;15.23;;;;;;;;;;5015595;28;20215;-36
2022/04/25 02:46:02;;;;;;;22.63;15.10;;;;;;;;;;5025894;28;20257;-39
2022/04/25 02:48:31;;;;;;;18.90;13.97;;;;;;;;;;5027716;28;20207;-37
2022/04/25 02:50:58;;;;;;;21.07;15.87;;;;;;;;;;5016543;28;20209;-42
2022/04/25 02:53:25;;;;;;;18.63;15.03;;;;;;;;;;5033204;28;20670;-36
2022/04/25 02:55:53;;;;;;;19.20;15.27;;;;;;;;;;5023341;28;20218;-39
2022/04/25 02:58:20;;;;;;;22.03;14.73;;;;;;;;;;5024117;28;20216;-36
2022/04/25 03:00:48;;;;;;;18.67;14.60;;;;;;;;;;5023740;28;20213;-34
2022/04/25 03:03:15;;;;;;;20.40;15.40;;;;;;;;;;5033405;28;20223;-39
2022/04/25 03:05:44;;;;;;;20.30;15.53;;;;;;;;;;5020180;28;20223;-34
2022/04/25 03:08:11;;;;;;;20.73;15.53;;;;;;;;;;5024012;28;20199;-35
2022/04/25 03:10:38;;;;;;;20.73;15.13;;;;;;;;;;5028088;28;20616;-34
2022/04/25 03:13:07;;;;;;;20.30;15.53;;;;;;;;;;5024725;28;20222;-37
2022/04/25 03:15:34;;;;;;;21.07;14.97;;;;;;;;;;5016154;28;20231;-35
2022/04/25 03:18:01;;;;;;;21.17;16.03;;;;;;;;;;5028290;28;20206;-38
2022/04/25 03:20:29;;;;;;;20.90;15.53;;;;;;;;;;5015917;28;20222;-31
2022/04/25 03:22:57;;;;;;;24.63;15.80;;;;;;;;;;5032164;28;20228;-37
2022/04/25 03:25:24;;;;;;;19.10;14.23;;;;;;;;;;5028500;28;20230;-37
2022/04/25 03:27:51;;;;;;;20.47;14.73;;;;;;;;;;5015782;28;20215;-38
2022/04/25 03:30:19;;;;;;;21.17;16.03;;;;;;;;;;5032367;28;20198;-38
2022/04/25 03:32:46;;;;;;;20.37;15.30;;;;;;;;;;5032069;28;20202;-38
2022/04/25 03:35:13;;;;;;;17.80;14.27;;;;;;;;;;5026077;28;20230;-36
2022/04/25 03:37:40;;;;;;;21.07;16.63;;;;;;;;;;5021377;28;20207;-33
2022/04/25 03:40:10;;;;;;;20.33;16.33;;;;;;;;;;5019606;28;20211;-39
2022/04/25 03:42:38;;;;;;;19.33;15.27;;;;;;;;;;5024652;28;20234;-33
2022/04/25 03:45:06;;;;;;;20.10;15.47;;;;;;;;;;5031549;28;20210;-33
2022/04/25 03:47:33;;;;;;;21.80;15.80;;;;;;;;;;5029603;28;20210;-35
2022/04/25 03:50:00;;;;;;;21.43;15.30;;;;;;;;;;5015646;28;20199;-35
2022/04/25 03:52:27;;;;;;;20.50;15.13;;;;;;;;;;5016404;28;20206;-39
2022/04/25 03:57:41;;;;;;;17.60;14.83;;;;;;;;;;5017465;28;20222;-35
2022/04/25 04:00:10;;;;;;;22.20;15.60;;;;;;;;;;5020163;28;20199;-36
2022/04/25 04:02:37;;;;;;;19.23;14.00;;;;;;;;;;5012473;28;20257;-41
2022/04/25 04:05:05;;;;;;;19.23;14.87;;;;;;;;;;5009792;28;20294;-37
2022/04/25 04:07:32;;;;;;;20.60;15.43;;;;;;;;;;5012241;28;20207;-39
2022/04/25 04:10:00;;;;;;;18.50;14.70;;;;;;;;;;5011970;28;20206;-39
2022/04/25 04:12:30;;;;;;;18.90;14.97;;;;;;;;;;5021029;28;20214;-36
2022/04/25 04:14:59;;;;;;;18.83;14.03;;;;;;;;;;5023406;28;20199;-35
2022/04/25 04:17:26;;;;;;;19.40;14.53;;;;;;;;;;5032312;28;20207;-38
2022/04/25 04:19:54;;;;;;;19.00;14.77;;;;;;;;;;5026399;28;20203;-35
2022/04/25 04:22:22;;;;;;;19.00;14.67;;;;;;;;;;5017121;28;20279;-38
2022/04/25 04:24:49;;;;;;;18.10;14.77;;;;;;;;;;5018938;28;20199;-37
2022/04/25 04:27:16;;;;;;;19.33;14.70;;;;;;;;;;5021649;28;20591;-37
2022/04/25 04:29:44;;;;;;;19.90;14.53;;;;;;;;;;5029223;28;20294;-39
2022/04/25 04:32:14;;;;;;;23.13;15.60;;;;;;;;;;5030990;28;20280;-37
2022/04/25 04:34:48;;;;;;;22.10;15.60;;;;;;;;;;5021840;28;20210;-42
2022/04/25 04:37:15;;;;;;;20.57;15.67;;;;;;;;;;5021319;28;20199;-36
2022/04/25 04:39:42;;;;;;;17.60;14.43;;;;;;;;;;5018319;28;20203;-41
2022/04/25 04:42:09;;;;;;;17.77;14.33;;;;;;;;;;5016782;28;20223;-36
2022/04/25 04:44:37;;;;;;;19.27;15.30;;;;;;;;;;5032566;28;20207;-33
2022/04/25 04:47:04;;;;;;;21.33;15.83;;;;;;;;;;5023699;28;20230;-35
2022/04/25 04:49:32;;;;;;;18.43;14.33;;;;;;;;;;5043254;28;20291;-38
2022/04/25 04:52:00;;;;;;;21.43;16.90;;;;;;;;;;5017580;28;20203;-35
2022/04/25 04:54:27;;;;;;;20.60;15.37;;;;;;;;;;5028735;28;20202;-38
2022/04/25 04:56:54;;;;;;;20.77;14.73;;;;;;;;;;5020204;28;20320;-39
2022/04/25 04:59:22;;;;;;;18.60;15.07;;;;;;;;;;5026113;28;20198;-32
2022/04/25 05:01:49;;;;;;;20.07;15.40;;;;;;;;;;5022618;28;20217;-38
2022/04/25 05:04:16;;;;;;;19.13;15.40;;;;;;;;;;5022072;28;20202;-36
2022/04/25 05:06:45;;;;;;;20.67;16.53;;;;;;;;;;5018503;28;20711;-39
2022/04/25 05:09:12;;;;;;;20.73;15.30;;;;;;;;;;5023765;28;20207;-35
2022/04/25 05:11:40;;;;;;;18.50;15.00;;;;;;;;;;5022933;28;20233;-32
2022/04/25 05:14:09;;;;;;;20.00;15.40;;;;;;;;;;5026545;28;20223;-35
2022/04/25 05:16:36;;;;;;;21.00;15.40;;;;;;;;;;5027238;28;20230;-38
2022/04/25 05:19:03;;;;;;;18.80;14.20;;;;;;;;;;5043142;28;20202;-36
2022/04/25 05:21:30;;;;;;;19.27;14.67;;;;;;;;;;5017222;28;20207;-41
2022/04/25 05:23:59;;;;;;;20.27;15.60;;;;;;;;;;5013885;28;20219;-38
2022/04/25 05:26:26;;;;;;;20.20;15.93;;;;;;;;;;5020663;28;20226;-35
2022/04/25 05:28:53;;;;;;;19.13;14.80;;;;;;;;;;5023579;28;20203;-39
2022/04/25 05:31:20;;;;;;;18.10;15.17;;;;;;;;;;5027558;28;20203;-33
2022/04/25 05:33:47;;;;;;;20.13;15.40;;;;;;;;;;5026539;28;20286;-36
2022/04/25 05:36:15;;;;;;;22.20;14.90;;;;;;;;;;5020442;28;20215;-39
2022/04/25 05:38:42;;;;;;;20.53;16.37;;;;;;;;;;5021994;28;20210;-38
2022/04/25 05:41:11;;;;;;;19.33;14.63;;;;;;;;;;5027454;28;20214;-40
2022/04/25 05:43:38;;;;;;;19.83;15.63;;;;;;;;;;5020182;28;20314;-40
2022/04/25 05:46:05;;;;;;;19.43;15.40;;;;;;;;;;5025150;28;20238;-37
2022/04/25 05:54:02;;;;;;;21.83;16.03;;;;;;;;;;5028477;28;20215;-32
2022/04/25 05:56:31;;;;;;;20.20;15.20;;;;;;;;;;5021039;28;20230;-37
2022/04/25 05:58:58;;;;;;;21.00;16.90;;;;;;;;;;5012169;28;20205;-29
2022/04/25 06:01:25;;;;;;;20.77;15.93;;;;;;;;;;5028398;28;20304;-31
2022/04/25 06:03:52;;;;;;;20.83;15.80;;;;;;;;;;5032071;28;20233;-34
2022/04/25 06:06:23;;;;;;;23.37;17.40;;;;;;;;;;5028261;28;20245;-30
2022/04/25 06:08:50;;;;;;;22.30;15.43;;;;;;;;;;5019547;28;20199;-32
2022/04/25 06:11:17;;;;;;;19.33;15.67;;;;;;;;;;5018493;28;20206;-36
2022/04/25 06:13:47;;;;;;;22.10;16.27;;;;;;;;;;5016583;28;20235;-39
2022/04/25 06:16:14;;;;;;;19.77;15.67;;;;;;;;;;5027675;28;20226;-37
2022/04/25 06:18:41;;;;;;;21.27;15.37;;;;;;;;;;5032514;28;20239;-35
2022/04/25 06:21:08;;;;;;;20.67;14.90;;;;;;;;;;5024631;28;20207;-34
2022/04/25 06:23:35;;;;;;;19.80;14.97;;;;;;;;;;5027707;28;20218;-36
2022/04/25 06:26:03;;;;;;;19.27;14.87;;;;;;;;;;5010468;28;20222;-34
2022/04/25 06:28:30;;;;;;;19.27;15.23;;;;;;;;;;5022309;28;20725;-36
2022/04/25 06:30:59;;;;;;;22.87;17.27;;;;;;;;;;5020484;28;20286;-29
2022/04/25 06:33:26;;;;;;;20.40;15.77;;;;;;;;;;5012206;28;20211;-31
2022/04/25 06:35:53;;;;;;;20.23;15.40;;;;;;;;;;5016994;28;20704;-31
2022/04/25 06:38:21;;;;;;;18.33;14.53;;;;;;;;;;5024365;28;20203;-37
2022/04/25 06:40:48;;;;;;;20.63;14.77;;;;;;;;;;5025026;28;20206;-34
2022/04/25 06:43:15;;;;;;;18.03;13.50;;;;;;;;;;5016122;28;20223;-39
2022/04/25 06:45:45;;;;;;;19.87;14.83;;;;;;;;;;5010433;28;20298;-31
2022/04/25 06:48:14;;;;;;;19.57;14.83;;;;;;;;;;5011530;28;20293;-38
2022/04/25 06:50:41;;;;;;;17.70;14.57;;;;;;;;;;5026967;28;20212;-36
2022/04/25 06:53:08;;;;;;;17.50;13.77;;;;;;;;;;5026966;28;20206;-33
2022/04/25 06:55:35;;;;;;;16.47;12.37;;;;;;;;;;5016818;28;20239;-37
2022/04/25 06:58:03;;;;;;;15.93;13.33;;;;;;;;;;5012452;28;20211;-33
2022/04/25 07:00:31;;;;;;;17.23;13.70;;;;;;;;;;5021007;28;20207;-35
2022/04/25 07:02:59;;;;;;;16.50;13.73;;;;;;;;;;5015616;28;20227;-28
2022/04/25 07:05:27;;;;;;;17.00;12.70;;;;;;;;;;5014836;28;20264;-35
2022/04/25 07:07:54;;;;;;;16.10;12.30;;;;;;;;;;5023299;28;20207;-36
2022/04/25 07:10:21;;;;;;;17.53;13.13;;;;;;;;;;5017673;28;20214;-35
2022/04/25 07:12:49;;;;;;;14.60;12.40;;;;;;;;;;5019164;28;20211;-32
2022/04/25 07:15:16;;;;;;;15.17;12.77;;;;;;;;;;5029382;28;20222;-35
2022/04/25 07:17:43;;;;;;;14.37;12.17;;;;;;;;;;5030584;28;20198;-34
2022/04/25 07:20:10;;;;;;;16.03;13.07;;;;;;;;;;5027619;28;20206;-32
2022/04/25 07:30:53;;;;;;;15.13;12.73;;;;;;;;;;5031632;28;20210;-32
2022/04/25 07:33:20;;;;;;;14.07;12.53;;;;;;;;;;5034177;28;20282;-40
2022/04/25 07:35:47;;;;;;;13.33;11.93;;;;;;;;;;5013927;28;20310;-36
2022/04/25 07:38:16;;;;;;;13.70;12.13;;;;;;;;;;5028056;28;20200;-34
2022/04/25 07:40:43;;;;;;;14.50;12.23;;;;;;;;;;5029285;28;20233;-34
2022/04/25 07:43:11;;;;;;;13.47;12.03;;;;;;;;;;5021806;28;20219;-32
2022/04/25 07:45:39;;;;;;;16.83;11.87;;;;;;;;;;5016958;28;20231;-38
2022/04/25 07:48:07;;;;;;;13.80;11.93;;;;;;;;;;5014552;28;20271;-31
2022/04/25 07:50:34;;;;;;;14.60;11.67;;;;;;;;;;5019939;28;20219;-38
2022/04/25 07:53:01;;;;;;;12.60;10.83;;;;;;;;;;5030601;28;20209;-34
2022/04/25 07:55:31;;;;;;;13.03;11.43;;;;;;;;;;5025878;28;20238;-31
2022/04/25 07:57:58;;;;;;;14.87;11.60;;;;;;;;;;5023665;28;20222;-34
2022/04/25 08:00:27;;;;;;;14.57;11.70;;;;;;;;;;5025993;28;20205;-35
2022/04/25 08:02:54;;;;;;;12.17;10.60;;;;;;;;;;5034169;28;20202;-33
2022/04/25 08:05:21;;;;;;;12.40;11.10;;;;;;;;;;5029560;28;20227;-32
2022/04/25 08:07:48;;;;;;;13.40;10.93;;;;;;;;;;5029604;28;20202;-31
2022/04/25 08:10:15;;;;;;;14.50;11.77;;;;;;;;;;5018543;28;20257;-30
2022/04/25 08:18:13;;;;;;;12.43;10.00;;;;;;;;;;5034441;28;20186;-37
2022/04/25 08:20:42;;;;;;;12.00;10.10;;;;;;;;;;5026023;28;20213;-34
2022/04/25 08:23:11;;;;;;;11.87;9.50;;;;;;;;;;5027393;28;20206;-33
2022/04/25 08:25:39;;;;;;;12.87;10.10;;;;;;;;;;5017573;28;20235;-33
2022/04/25 08:28:08;;;;;;;12.80;9.53;;;;;;;;;;5022153;28;20207;-33
2022/04/25 08:30:35;;;;;;;12.80;9.67;;;;;;;;;;5028496;28;20207;-33
2022/04/25 08:33:02;;;;;;;11.47;9.37;;;;;;;;;;5026174;28;20705;-33
2022/04/25 08:35:30;;;;;;;12.03;10.20;;;;;;;;;;5017904;28;20227;-33
2022/04/25 08:37:57;;;;;;;12.23;10.20;;;;;;;;;;5027003;28;20217;-31
2022/04/25 08:40:25;;;;;;;12.23;9.93;;;;;;;;;;5028035;28;20218;-36
2022/04/25 08:42:53;;;;;;;10.80;9.63;;;;;;;;;;5026175;28;20206;-31
2022/04/25 08:45:23;;;;;;;11.40;10.07;;;;;;;;;;5034282;28;20227;-30
2022/04/25 08:47:54;;;;;;;11.10;9.83;;;;;;;;;;5034633;28;20258;-30
2022/04/25 08:50:27;;;;;;;11.37;10.10;;;;;;;;;;5019692;28;20196;-35
2022/04/25 08:52:56;;;;;;;10.83;9.73;;;;;;;;;;5025200;28;20283;-33
2022/04/25 08:55:24;;;;;;;11.17;9.83;;;;;;;;;;5027908;28;20265;-35
2022/04/25 08:57:52;;;;;;;11.20;9.97;;;;;;;;;;5025434;28;20210;-39
2022/04/25 09:00:19;;;;;;;10.67;9.57;;;;;;;;;;5017406;28;20203;-37
2022/04/25 09:02:49;;;;;;;11.47;9.77;;;;;;;;;;5012628;28;20219;-37
2022/04/25 09:05:16;;;;;;;11.03;9.83;;;;;;;;;;5025165;28;20235;-34
2022/04/25 09:07:45;;;;;;;10.43;9.33;;;;;;;;;;5029297;28;20210;-36
2022/04/25 09:10:13;;;;;;;10.37;8.83;;;;;;;;;;5021726;28;20204;-32
2022/04/25 09:12:41;;;;;;;10.67;9.23;;;;;;;;;;5022403;28;20230;-31
2022/04/25 09:15:09;;;;;;;11.17;9.27;;;;;;;;;;5023116;28;20290;-34
2022/04/25 09:17:37;;;;;;;11.30;9.27;;;;;;;;;;5024662;28;20202;-35
2022/04/25 09:20:08;;;;;;;11.17;9.80;;;;;;;;;;5026655;28;20207;-30
2022/04/25 09:22:36;;;;;;;10.90;9.80;;;;;;;;;;5013376;28;20221;-40
2022/04/25 09:25:04;;;;;;;11.00;9.57;;;;;;;;;;5029158;28;20223;-37
2022/04/25 09:27:32;;;;;;;10.07;8.93;;;;;;;;;;5027357;28;20218;-38
2022/04/25 09:30:12;;;;;;;10.77;9.53;;;;;;;;;;5032140;28;20211;-42
2022/04/25 09:32:57;;;;;;;9.87;8.87;;;;;;;;;;5041650;28;20202;-35
2022/04/25 09:35:29;;;;;;;10.90;9.47;;;;;;;;;;5028695;28;20232;-35
2022/04/25 09:37:57;;;;;;;10.83;8.93;;;;;;;;;;5017028;28;20199;-37
2022/04/25 09:40:25;;;;;;;11.73;9.90;;;;;;;;;;5021159;28;20275;-39
2022/04/25 09:43:03;;;;;;;13.53;9.60;;;;;;;;;;5025910;28;20295;-41
2022/04/25 09:45:30;;;;;;;9.90;8.90;;;;;;;;;;5022511;28;20231;-34
2022/04/25 09:47:58;;;;;;;9.73;8.70;;;;;;;;;;5036284;28;20210;-34
2022/04/25 09:50:27;;;;;;;10.00;8.77;;;;;;;;;;5019863;28;20205;-34
2022/04/25 09:52:57;;;;;;;10.10;8.57;;;;;;;;;;5021727;28;20206;-39
2022/04/25 09:55:25;;;;;;;10.23;8.73;;;;;;;;;;5019162;28;20227;-33
2022/04/25 09:57:52;;;;;;;10.77;8.80;;;;;;;;;;5023382;28;20219;-40
2022/04/25 10:00:30;;;;;;;13.07;9.30;;;;;;;;;;5031109;28;20200;-39
2022/04/25 10:02:58;;;;;;;10.83;9.50;;;;;;;;;;5049336;28;20284;-40
2022/04/25 10:05:36;;;;;;;9.23;8.27;;;;;;;;;;5024194;28;20405;-31
2022/04/25 10:08:05;;;;;;;10.30;8.73;;;;;;;;;;5037249;28;20193;-39
2022/04/25 10:10:33;;;;;;;9.30;8.37;;;;;;;;;;5017098;28;20215;-38
2022/04/25 10:13:00;;;;;;;10.17;8.73;;;;;;;;;;5034360;28;20203;-36
2022/04/25 10:15:27;;;;;;;11.60;9.50;;;;;;;;;;5020617;28;20223;-41
2022/04/25 10:17:55;;;;;;;10.53;9.30;;;;;;;;;;5012309;28;20199;-33
2022/04/25 10:20:23;;;;;;;10.47;9.27;;;;;;;;;;5017186;28;20209;-30
2022/04/25 10:22:51;;;;;;;10.03;8.90;;;;;;;;;;5029068;28;20242;-29
2022/04/25 10:25:19;;;;;;;11.70;10.13;;;;;;;;;;5025266;28;20235;-35
2022/04/25 10:27:47;;;;;;;11.40;10.13;;;;;;;;;;5021055;28;20199;-36
2022/04/25 10:30:17;;;;;;;9.53;8.53;;;;;;;;;;5029433;28;20213;-34
2022/04/25 10:32:44;;;;;;;11.97;8.77;;;;;;;;;;5050798;28;20210;-31
2022/04/25 10:35:14;;;;;;;10.40;9.03;;;;;;;;;;5030865;28;20229;-34
2022/04/25 10:37:44;;;;;;;10.40;8.57;;;;;;;;;;5025088;28;20199;-36
2022/04/25 10:40:12;;;;;;;9.07;8.17;;;;;;;;;;5028715;28;20235;-37
2022/04/25 10:45:58;;;;;;;8.80;7.90;;;;;;;;;;5027211;28;20238;-33
2022/04/25 10:48:26;;;;;;;9.57;8.53;;;;;;;;;;5032021;28;20301;-34
2022/04/25 10:51:08;;;;;;;9.93;8.83;;;;;;;;;;5029288;28;20297;-37
2022/04/25 10:53:50;;;;;;;9.50;8.57;;;;;;;;;;5024492;28;20286;-36
2022/04/25 10:56:17;;;;;;;10.03;8.67;;;;;;;;;;5027861;28;20223;-29
2022/04/25 10:59:05;;;;;;;9.40;7.90;;;;;;;;;;5020477;28;20216;-34
2022/04/25 11:01:34;;;;;;;11.73;9.23;;;;;;;;;;5035090;28;20203;-32
2022/04/25 11:04:05;;;;;;;9.67;8.53;;;;;;;;;;5033314;28;20206;-38
2022/04/25 11:06:33;;;;;;;8.87;7.97;;;;;;;;;;5016934;28;20228;-32
2022/04/25 11:09:00;;;;;;;8.73;7.83;;;;;;;;;;5034499;28;20195;-33
2022/04/25 11:11:30;;;;;;;10.50;7.90;;;;;;;;;;5023035;28;20208;-35
2022/04/25 11:14:24;;;;;;;8.37;7.47;;;;;;;;;;5022645;28;20239;-31
2022/04/25 11:17:10;;;;;;;9.27;8.37;;;;;;;;;;5033301;28;20246;-35
2022/04/25 11:19:47;;;;;;;9.47;8.47;;;;;;;;;;5023266;28;20207;-34
2022/04/25 11:22:39;;;;;;;9.27;8.37;;;;;;;;;;5034637;28;20281;-34
2022/04/25 11:25:24;;;;;;;10.80;8.37;;;;;;;;;;5003356;28;20245;-36
2022/04/25 11:28:04;;;;;;;9.33;8.23;;;;;;;;;;5030293;28;20210;-35
2022/04/25 11:30:31;;;;;;;8.90;8.00;;;;;;;;;;5014800;28;20558;-36
2022/04/25 11:33:04;;;;;;;8.63;7.73;;;;;;;;;;5018255;28;20211;-32
2022/04/25 11:35:31;;;;;;;9.60;8.60;;;;;;;;;;5024998;28;20250;-36
2022/04/25 11:37:58;;;;;;;8.40;7.37;;;;;;;;;;5022971;28;20205;-37
2022/04/25 11:40:26;;;;;;;8.77;7.77;;;;;;;;;;5016024;28;20302;-34
2022/04/25 11:42:54;;;;;;;9.13;8.23;;;;;;;;;;5023731;28;20231;-33
2022/04/25 11:45:21;;;;;;;8.90;8.00;;;;;;;;;;5030471;28;20237;-32
2022/04/25 11:47:48;;;;;;;9.13;8.10;;;;;;;;;;5034178;28;20218;-35
2022/04/25 11:50:19;;;;;;;9.10;7.50;;;;;;;;;;5029118;28;20203;-35
2022/04/25 11:52:47;;;;;;;8.00;6.97;;;;;;;;;;5026145;28;20203;-39
2022/04/25 11:55:14;;;;;;;7.90;7.10;;;;;;;;;;5029965;28;20219;-33
2022/04/25 11:57:43;;;;;;;7.73;7.03;;;;;;;;;;5029141;28;20214;-35
2022/04/25 12:00:14;;;;;;;9.47;7.53;;;;;;;;;;5026522;28;20293;-36
2022/04/25 12:02:41;;;;;;;9.97;7.33;;;;;;;;;;5032870;28;20218;-34
2022/04/25 12:05:10;;;;;;;8.87;7.97;;;;;;;;;;5025903;28;20230;-37
2022/04/25 12:15:33;;;;;;;8.73;6.97;;;;;;;;;;5025714;28;20259;-31
2022/04/25 12:15:57;;;;;;;7.90;7.10;;;;;;;;;;5025828;28;20226;-33
2022/04/25 12:18:25;;;;;;;8.03;7.23;;;;;;;;;;5034078;28;20210;-33
2022/04/25 12:20:59;;;;;;;9.80;7.77;;;;;;;;;;5023424;28;20210;-33
2022/04/25 12:23:28;;;;;;;10.37;7.73;;;;;;;;;;5017547;28;20215;-31
2022/04/25 12:25:56;;;;;;;8.73;7.87;;;;;;;;;;5021705;28;20593;-35
2022/04/25 12:28:24;;;;;;;5.83;4.50;;;;;;;;;;5027531;28;20218;-41
2022/04/25 12:30:53;;;;;;;4.73;3.60;;;;;;;;;;5023321;28;20246;-38
2022/04/25 12:33:21;;;;;;;3.97;3.57;;;;;;;;;;5014122;28;20222;-31
2022/04/25 12:35:48;;;;;;;4.73;4.23;;;;;;;;;;5015332;28;20242;-34
2022/04/25 12:38:38;;;;;;;4.60;4.13;;;;;;;;;;5019437;28;20427;-39
2022/04/25 12:41:06;;;;;;;4.20;3.90;;;;;;;;;;5024244;28;20249;-33
2022/04/25 12:43:42;;;;;;;4.07;3.20;;;;;;;;;;5027851;28;20211;-34
2022/04/25 12:46:09;;;;;;;4.97;3.57;;;;;;;;;;5033544;28;20226;-33
2022/04/25 12:48:57;;;;;;;3.93;3.50;;;;;;;;;;5033919;28;20199;-39
2022/04/25 12:51:32;;;;;;;3.83;3.27;;;;;;;;;;5016840;28;20671;-30
2022/04/25 12:54:01;;;;;;;5.30;3.90;;;;;;;;;;5021280;28;20209;-35
2022/04/25 12:56:29;;;;;;;3.70;3.40;;;;;;;;;;5025106;28;20233;-33
2022/04/25 12:58:56;;;;;;;4.53;3.37;;;;;;;;;;5021186;28;20198;-37
2022/04/25 13:01:27;;;;;;;4.40;3.60;;;;;;;;;;5033001;28;20222;-36
2022/04/25 13:04:12;;;;;;;7.13;4.17;;;;;;;;;;5033231;28;20293;-35
2022/04/25 13:06:40;;;;;;;4.80;4.30;;;;;;;;;;5012683;28;20231;-30
2022/04/25 13:09:08;;;;;;;4.67;3.80;;;;;;;;;;5019974;28;20211;-36
2022/04/25 13:11:35;;;;;;;4.17;3.83;;;;;;;;;;5019033;28;20215;-32
2022/04/25 13:14:03;;;;;;;5.13;4.10;;;;;;;;;;5014141;28;20215;-35
2022/04/25 13:16:30;;;;;;;4.60;4.20;;;;;;;;;;5028748;28;20246;-33
2022/04/25 13:18:58;;;;;;;4.63;4.17;;;;;;;;;;5022031;28;20199;-38
2022/04/25 13:21:25;;;;;;;3.93;3.53;;;;;;;;;;5018431;28;20207;-32
2022/04/25 13:23:53;;;;;;;5.00;3.73;;;;;;;;;;5031959;28;20210;-29
2022/04/25 13:26:22;;;;;;;4.73;4.20;;;;;;;;;;5026320;28;20227;-35
2022/04/25 13:28:49;;;;;;;5.50;4.10;;;;;;;;;;5022727;28;20202;-33
2022/04/25 13:31:23;;;;;;;4.60;3.83;;;;;;;;;;5023371;28;20214;-34
2022/04/25 13:33:50;;;;;;;5.57;4.27;;;;;;;;;;5022542;28;20214;-39
2022/04/25 13:36:17;;;;;;;4.20;3.80;;;;;;;;;;5039261;28;20222;-34
2022/04/25 13:38:44;;;;;;;4.13;3.67;;;;;;;;;;5046345;28;20206;-34
2022/04/25 13:41:11;;;;;;;5.97;4.10;;;;;;;;;;5022932;28;20210;-35
2022/04/25 13:43:40;;;;;;;4.33;3.97;;;;;;;;;;5030660;28;20224;-35
2022/04/25 13:46:07;;;;;;;4.03;3.73;;;;;;;;;;5025575;28;20230;-33
2022/04/25 13:48:34;;;;;;;4.73;4.30;;;;;;;;;;5045561;28;20293;-37
2022/04/25 13:51:01;;;;;;;4.23;3.83;;;;;;;;;;5027870;28;20198;-39
2022/04/25 13:53:28;;;;;;;4.40;4.00;;;;;;;;;;5034954;28;20213;-39
2022/04/25 13:55:55;;;;;;;3.63;3.33;;;;;;;;;;5032509;28;20224;-36
2022/04/25 13:58:24;;;;;;;3.27;3.07;;;;;;;;;;5035093;28;20226;-37
2022/04/25 14:00:53;;;;;;;3.60;3.30;;;;;;;;;;5026927;28;20238;-33
2022/04/25 14:03:21;;;;;;;4.40;3.13;;;;;;;;;;5028848;28;20211;-37
2022/04/25 14:05:50;;;;;;;3.70;3.40;;;;;;;;;;5024541;28;20235;-34
2022/04/25 14:08:17;;;;;;;3.30;3.00;;;;;;;;;;5042989;28;20252;-37
2022/04/25 14:10:46;;;;;;;3.10;2.90;;;;;;;;;;5038538;28;20211;-38
2022/04/25 14:13:14;;;;;;;2.63;2.43;;;;;;;;;;5028019;28;20218;-31
2022/04/25 14:15:42;;;;;;;3.20;2.80;;;;;;;;;;5019399;28;20220;-30
2022/04/25 14:18:11;;;;;;;3.57;3.20;;;;;;;;;;5045978;28;20202;-31
2022/04/25 14:20:38;;;;;;;3.50;3.00;;;;;;;;;;5031517;28;20580;-35
2022/04/25 14:23:06;;;;;;;3.67;3.33;;;;;;;;;;5043988;28;20211;-34
2022/04/25 14:25:33;;;;;;;3.50;3.20;;;;;;;;;;5042958;28;20263;-36
2022/04/25 14:28:02;;;;;;;3.50;3.20;;;;;;;;;;5027191;28;20202;-32
2022/04/25 14:30:30;;;;;;;3.77;3.47;;;;;;;;;;5027306;28;20211;-31
2022/04/25 14:32:57;;;;;;;4.33;3.17;;;;;;;;;;5015360;28;20199;-34
2022/04/25 14:35:26;;;;;;;5.30;3.23;;;;;;;;;;5035042;28;20234;-32
2022/04/25 14:37:54;;;;;;;3.10;2.90;;;;;;;;;;5024951;28;20199;-32
2022/04/25 14:40:21;;;;;;;5.67;3.20;;;;;;;;;;5035877;28;20199;-32
2022/04/25 14:42:48;;;;;;;2.77;2.57;;;;;;;;;;5025123;28;20238;-36
2022/04/25 14:45:16;;;;;;;3.30;3.10;;;;;;;;;;5033628;28;20295;-36
2022/04/25 14:47:46;;;;;;;3.17;2.93;;;;;;;;;;5028696;28;20213;-35
2022/04/25 14:55:45;;;;;;;3.13;2.83;;;;;;;;;;5030316;28;20336;-38
2022/04/25 14:58:13;;;;;;;3.03;2.73;;;;;;;;;;5040419;28;20214;-32
2022/04/25 15:00:42;;;;;;;2.80;2.60;;;;;;;;;;5038664;28;20202;-31
2022/04/25 15:03:09;;;;;;;2.90;2.70;;;;;;;;;;5033586;28;20214;-29
2022/04/25 15:05:38;;;;;;;3.17;2.87;;;;;;;;;;5033810;28;20294;-31
2022/04/25 15:08:08;;;;;;;3.20;3.00;;;;;;;;;;5029039;28;20277;-38
2022/04/25 15:10:35;;;;;;;2.70;2.50;;;;;;;;;;5028390;28;20207;-31
2022/04/25 15:13:03;;;;;;;3.73;2.67;;;;;;;;;;5035171;28;20220;-36
2022/04/25 15:15:30;;;;;;;2.50;2.30;;;;;;;;;;5033665;28;20221;-31
2022/04/25 15:17:57;;;;;;;2.67;2.47;;;;;;;;;;5023450;28;20249;-39